createdAt,value
2022-08-03T00:02:24.593Z,6.53
2022-08-03T00:07:27.263Z,6.18
2022-08-03T00:12:29.914Z,6.57
2022-08-03T00:17:52.640Z,6.97
2022-08-03T00:22:55.328Z,6.65
2022-08-03T00:27:58.319Z,7.00
2022-08-03T00:33:01.436Z,7.63
2022-08-03T00:38:05.323Z,6.68
2022-08-03T00:43:09.035Z,6.57
2022-08-03T00:48:29.745Z,6.60
2022-08-03T00:53:36.929Z,6.75
2022-08-03T00:58:39.596Z,7.05
2022-08-03T01:03:42.989Z,7.25
2022-08-03T01:09:09.661Z,7.28
2022-08-03T01:14:19.337Z,6.80
2022-08-03T01:19:45.028Z,7.03
2022-08-03T01:25:02.593Z,7.20
2022-08-03T01:30:10.346Z,6.57
2022-08-03T01:35:28.266Z,7.53
2022-08-03T01:40:34.478Z,7.63
2022-08-03T01:45:38.677Z,6.97
2022-08-03T01:50:42.873Z,7.15
2022-08-03T01:55:52.521Z,7.68
2022-08-03T02:01:01.708Z,7.32
2022-08-03T02:07:00.305Z,6.90
2022-08-03T02:11:30.948Z,7.60
2022-08-03T02:16:34.886Z,6.70
2022-08-03T02:21:56.510Z,6.50
2022-08-03T02:27:02.151Z,6.78
2022-08-03T02:32:05.709Z,8.10
2022-08-03T02:37:10.563Z,6.97
2022-08-03T02:42:16.738Z,6.50
2022-08-03T02:47:21.539Z,6.45
2022-08-03T02:52:28.249Z,6.40
2022-08-03T02:57:35.157Z,6.80
2022-08-03T03:02:41.301Z,6.30
2022-08-03T03:07:51.921Z,6.28
2022-08-03T03:12:57.891Z,6.68
2022-08-03T03:18:01.682Z,7.00
2022-08-03T03:23:05.784Z,7.30
2022-08-03T03:28:08.602Z,6.18
2022-08-03T03:33:12.445Z,8.18
2022-08-03T03:38:15.249Z,6.93
2022-08-03T03:43:21.438Z,6.20
2022-08-03T03:48:25.497Z,5.75
2022-08-03T03:53:28.416Z,7.22
2022-08-03T03:58:32.742Z,6.32
2022-08-03T04:03:36.385Z,7.93
2022-08-03T04:08:59.266Z,7.50
2022-08-03T04:14:20.831Z,6.68
2022-08-03T04:19:32.571Z,6.63
2022-08-03T04:24:41.740Z,7.95
2022-08-03T04:29:48.709Z,7.88
2022-08-03T04:34:52.553Z,7.65
2022-08-03T04:40:00.460Z,7.78
2022-08-03T04:45:05.243Z,7.97
2022-08-03T04:50:12.497Z,8.43
2022-08-03T04:55:33.704Z,9.07
2022-08-03T05:00:36.458Z,9.00
2022-08-03T05:05:49.957Z,8.20
2022-08-03T05:10:53.684Z,8.80
2022-08-03T05:15:56.357Z,8.50
2022-08-03T05:20:59.081Z,8.20
2022-08-03T05:26:01.903Z,7.57
2022-08-03T05:31:04.566Z,8.07
2022-08-03T05:36:07.449Z,7.47
2022-08-03T05:41:22.230Z,7.30
2022-08-03T05:46:26.644Z,8.48
2022-08-03T05:51:29.256Z,6.82
2022-08-03T05:56:31.942Z,7.90
2022-08-03T06:01:34.673Z,7.13
2022-08-03T06:06:38.029Z,6.53
2022-08-03T06:11:41.568Z,6.20
2022-08-03T06:16:44.427Z,6.32
2022-08-03T06:21:48.349Z,6.28
2022-08-03T06:26:51.223Z,5.63
2022-08-03T06:31:53.876Z,5.57
2022-08-03T06:37:01.728Z,6.35
2022-08-03T06:42:05.140Z,5.05
2022-08-03T06:47:09.113Z,3.88
2022-08-03T06:52:11.834Z,4.70
2022-08-03T06:57:34.552Z,3.85
2022-08-03T07:02:37.403Z,4.72
2022-08-03T07:07:41.343Z,5.55
2022-08-03T07:12:55.607Z,3.53
2022-08-03T07:17:59.130Z,3.40
2022-08-03T07:23:01.790Z,3.15
2022-08-03T07:28:04.798Z,2.92
2022-08-03T07:33:07.494Z,3.10
2022-08-03T07:38:10.149Z,2.83
2022-08-03T07:43:13.002Z,3.40
2022-08-03T07:48:15.959Z,2.70
2022-08-03T07:53:18.795Z,3.00
2022-08-03T07:58:24.399Z,3.00
2022-08-03T08:03:27.389Z,2.75
2022-08-03T08:08:31.610Z,3.00
2022-08-03T08:13:35.331Z,3.60
2022-08-03T08:18:38.323Z,4.18
2022-08-03T08:23:44.356Z,2.95
2022-08-03T08:34:04.600Z,3.20
2022-08-03T08:39:07.770Z,3.15
2022-08-03T08:44:10.429Z,2.83
2022-08-03T08:49:18.805Z,3.22
2022-08-03T08:54:22.933Z,2.90
2022-08-03T08:59:26.317Z,3.72
2022-08-03T09:04:30.906Z,3.42
2022-08-03T09:10:10.582Z,3.25
2022-08-03T09:15:16.083Z,3.70
2022-08-03T09:20:21.365Z,4.20
2022-08-03T09:25:33.202Z,3.63
2022-08-03T09:30:38.181Z,3.97
2022-08-03T09:35:58.273Z,3.78
2022-08-03T09:41:01.175Z,3.22
2022-08-03T09:46:05.382Z,4.40
2022-08-03T09:51:13.479Z,3.72
2022-08-03T09:56:47.555Z,3.05
2022-08-03T10:01:50.304Z,3.30
2022-08-03T10:07:09.302Z,3.03
2022-08-03T10:12:14.293Z,3.65
2022-08-03T10:17:17.180Z,3.40
2022-08-03T10:22:23.989Z,3.60
2022-08-03T10:27:32.566Z,3.75
2022-08-03T10:32:42.113Z,3.72
2022-08-03T10:37:56.730Z,4.50
2022-08-03T10:43:10.101Z,3.80
2022-08-03T10:48:13.752Z,3.55
2022-08-03T10:53:19.991Z,3.45
2022-08-03T10:58:37.752Z,3.58
2022-08-03T11:03:56.247Z,3.05
2022-08-03T11:09:11.056Z,3.88
2022-08-03T11:14:20.180Z,3.60
2022-08-03T11:19:24.328Z,4.30
2022-08-03T11:24:51.568Z,3.58
2022-08-03T11:30:18.554Z,4.25
2022-08-03T11:35:33.748Z,3.42
2022-08-03T11:40:38.069Z,3.63
2022-08-03T11:45:57.291Z,3.85
2022-08-03T11:51:07.771Z,3.83
2022-08-03T11:56:12.716Z,4.10
2022-08-03T12:01:21.260Z,3.22
2022-08-03T12:06:25.584Z,3.55
2022-08-03T12:11:30.728Z,3.38
2022-08-03T12:16:33.838Z,3.35
2022-08-03T12:21:57.131Z,3.50
2022-08-03T12:27:00.357Z,3.28
2022-08-03T12:32:03.214Z,4.03
2022-08-03T12:37:22.234Z,4.30
2022-08-03T12:42:37.528Z,4.00
2022-08-03T12:48:00.329Z,3.88
2022-08-03T12:53:05.416Z,3.30
2022-08-03T12:58:33.823Z,4.13
2022-08-03T13:03:49.793Z,3.70
2022-08-03T13:09:06.815Z,3.92
2022-08-03T13:14:09.746Z,3.60
2022-08-03T13:19:19.859Z,3.70
2022-08-03T13:24:22.629Z,3.80
2022-08-03T13:29:25.275Z,4.25
2022-08-03T13:34:28.393Z,3.53
2022-08-03T13:39:32.536Z,3.85
2022-08-03T13:44:37.217Z,3.80
2022-08-03T13:49:39.895Z,3.85
2022-08-03T13:54:46.172Z,4.50
2022-08-03T13:59:50.952Z,3.90
2022-08-03T14:04:54.831Z,4.30
2022-08-03T14:09:57.417Z,3.97
2022-08-03T14:15:01.731Z,4.28
2022-08-03T14:20:36.918Z,4.40
2022-08-03T14:25:43.647Z,4.85
2022-08-03T14:30:56.183Z,3.65
2022-08-03T14:35:58.922Z,3.95
2022-08-03T14:41:01.825Z,4.00
2022-08-03T14:46:04.574Z,4.00
2022-08-03T14:51:07.244Z,4.82
2022-08-03T14:56:10.965Z,5.53
2022-08-03T15:02:02.196Z,4.43
2022-08-03T15:06:36.486Z,4.88
2022-08-03T15:11:39.350Z,4.40
2022-08-03T15:16:42.214Z,4.15
2022-08-03T15:21:46.853Z,4.28
2022-08-03T15:26:52.260Z,3.83
2022-08-03T15:31:55.781Z,5.25
2022-08-03T15:36:58.681Z,5.20
2022-08-03T15:42:01.296Z,5.50
2022-08-03T15:47:03.988Z,5.15
2022-08-03T15:52:06.653Z,5.45
2022-08-03T15:57:09.390Z,5.00
2022-08-03T16:02:12.040Z,4.70
2022-08-03T16:07:15.990Z,6.30
2022-08-03T16:12:18.676Z,4.47
2022-08-03T16:17:22.419Z,4.55
2022-08-03T16:22:25.777Z,4.60
2022-08-03T16:27:37.634Z,5.07
2022-08-03T16:32:51.953Z,5.50
2022-08-03T16:37:56.734Z,4.60
2022-08-03T16:42:59.676Z,6.18
2022-08-03T16:48:05.571Z,6.05
2022-08-03T16:53:16.424Z,7.03
2022-08-03T16:58:34.742Z,6.03
2022-08-03T17:04:01.343Z,6.15
2022-08-03T17:09:13.080Z,5.60
2022-08-03T17:14:22.651Z,7.57
2022-08-03T17:19:26.533Z,6.63
2022-08-03T17:24:32.245Z,6.55
2022-08-03T17:29:38.529Z,8.02
2022-08-03T17:34:50.194Z,7.03
2022-08-03T17:39:59.406Z,8.05
2022-08-03T17:45:03.790Z,8.30
2022-08-03T17:50:24.342Z,8.40
2022-08-03T17:55:54.915Z,7.43
2022-08-03T18:02:00.245Z,8.23
2022-08-03T18:06:56.808Z,9.00
2022-08-03T18:12:06.241Z,9.55
2022-08-03T18:17:19.803Z,10.45
2022-08-03T18:22:25.236Z,11.83
2022-08-03T18:27:45.626Z,8.13
2022-08-03T18:33:01.159Z,7.63
2022-08-03T18:38:18.800Z,7.80
2022-08-03T18:43:22.551Z,6.32
2022-08-03T18:49:00.385Z,5.30
2022-08-03T18:54:46.681Z,6.57
2022-08-03T19:00:16.066Z,6.93
2022-08-03T19:05:22.298Z,7.75
2022-08-03T19:10:29.444Z,10.68
2022-08-03T19:15:37.024Z,9.43
2022-08-03T19:20:46.819Z,9.02
2022-08-03T19:25:50.508Z,9.20
2022-08-03T19:30:56.805Z,7.22
2022-08-03T19:36:02.235Z,7.43
2022-08-03T19:41:07.382Z,6.80
2022-08-03T19:46:14.140Z,6.07
2022-08-03T19:51:17.084Z,6.20
2022-08-03T19:56:26.294Z,6.22
2022-08-03T20:01:30.065Z,6.45
2022-08-03T20:06:57.150Z,5.65
2022-08-03T20:12:00.362Z,6.00
2022-08-03T20:17:03.204Z,5.65
2022-08-03T20:22:14.444Z,6.03
2022-08-03T20:27:21.496Z,5.43
2022-08-03T20:32:34.380Z,5.57
2022-08-03T20:37:37.183Z,5.40
2022-08-03T20:42:41.489Z,6.05
2022-08-03T20:47:50.551Z,5.38
2022-08-03T20:52:54.906Z,5.55
2022-08-03T20:57:59.469Z,5.43
2022-08-03T21:03:03.002Z,5.05
2022-08-03T21:08:07.913Z,4.32
2022-08-03T21:13:23.580Z,4.93
2022-08-03T21:18:28.729Z,4.30
2022-08-03T21:23:35.070Z,5.35
2022-08-03T21:28:47.061Z,4.43
2022-08-03T21:33:49.707Z,4.80
2022-08-03T21:38:56.622Z,4.38
2022-08-03T21:44:01.766Z,4.63
2022-08-03T21:50:05.757Z,4.43
2022-08-03T21:54:35.879Z,4.57
2022-08-03T21:59:44.560Z,4.65
2022-08-03T22:04:55.308Z,4.47
2022-08-03T22:15:05.496Z,4.63
2022-08-03T22:20:11.630Z,4.53
2022-08-03T22:25:15.938Z,4.82
2022-08-03T22:30:19.698Z,4.82
2022-08-03T22:35:24.816Z,4.40
2022-08-03T22:40:28.449Z,4.70
2022-08-03T22:46:07.356Z,4.53
2022-08-03T22:50:56.297Z,4.90
2022-08-03T22:55:59.322Z,4.38
2022-08-03T23:01:06.066Z,5.60
2022-08-03T23:06:08.974Z,5.40
2022-08-03T23:11:12.760Z,5.40
2022-08-03T23:16:16.707Z,4.72
2022-08-03T23:22:00.186Z,5.55
2022-08-03T23:26:56.526Z,6.00
2022-08-03T23:32:01.545Z,5.25
2022-08-03T23:37:05.944Z,5.47
2022-08-03T23:42:09.901Z,5.80
2022-08-03T23:47:14.079Z,6.30
2022-08-03T23:52:28.581Z,6.18
2022-08-03T23:57:52.097Z,5.93
